sensor_id;sensor_type;location;lat;lon;timestamp;P1;P2;P0
42510;PMS7003;28141;51.120;17.114;2022-12-10T00:02:03;33;23;15
42510;PMS7003;28141;51.120;17.114;2022-12-10T00:05:07;33;22;15
42510;PMS7003;28141;51.120;17.114;2022-12-10T00:08:11;32;24;15
42510;PMS7003;28141;51.120;17.114;2022-12-10T00:11:15;34;23;14
42510;PMS7003;28141;51.120;17.114;2022-12-10T00:14:20;31;20;13
42510;PMS7003;28141;51.120;17.114;2022-12-10T00:17:23;33;21;15
42510;PMS7003;28141;51.120;17.114;2022-12-10T00:20:26;32;22;16
42510;PMS7003;28141;51.120;17.114;2022-12-10T00:23:29;36;23;14
42510;PMS7003;28141;51.120;17.114;2022-12-10T00:27:03;36;24;15
42510;PMS7003;28141;51.120;17.114;2022-12-10T00:30:07;33;24;16
42510;PMS7003;28141;51.120;17.114;2022-12-10T00:33:11;40;25;15
42510;PMS7003;28141;51.120;17.114;2022-12-10T00:36:16;36;24;15
42510;PMS7003;28141;51.120;17.114;2022-12-10T00:39:24;36;22;14
42510;PMS7003;28141;51.120;17.114;2022-12-10T00:42:27;38;25;15
42510;PMS7003;28141;51.120;17.114;2022-12-10T00:45:30;35;22;15
42510;PMS7003;28141;51.120;17.114;2022-12-10T00:48:34;33;19;13
42510;PMS7003;28141;51.120;17.114;2022-12-10T00:51:38;31;22;14
42510;PMS7003;28141;51.120;17.114;2022-12-10T00:55:07;35;22;13
42510;PMS7003;28141;51.120;17.114;2022-12-10T00:58:11;33;21;13
42510;PMS7003;28141;51.120;17.114;2022-12-10T01:01:16;31;20;13
42510;PMS7003;28141;51.120;17.114;2022-12-10T01:04:28;32;21;14
42510;PMS7003;28141;51.120;17.114;2022-12-10T01:07:31;36;25;14
42510;PMS7003;28141;51.120;17.114;2022-12-10T01:10:34;29;20;14
42510;PMS7003;28141;51.120;17.114;2022-12-10T01:13:38;35;22;15
42510;PMS7003;28141;51.120;17.114;2022-12-10T01:16:42;29;20;14
42510;PMS7003;28141;51.120;17.114;2022-12-10T01:20:10;33;23;15
42510;PMS7003;28141;51.120;17.114;2022-12-10T01:23:14;34;21;14
42510;PMS7003;28141;51.120;17.114;2022-12-10T01:26:19;34;22;15
42510;PMS7003;28141;51.120;17.114;2022-12-10T01:29:24;30;20;13
42510;PMS7003;28141;51.120;17.114;2022-12-10T01:32:30;39;24;15
42510;PMS7003;28141;51.120;17.114;2022-12-10T01:35:36;34;22;15
42510;PMS7003;28141;51.120;17.114;2022-12-10T01:38:40;28;19;13
42510;PMS7003;28141;51.120;17.114;2022-12-10T01:45:19;31;20;14
42510;PMS7003;28141;51.120;17.114;2022-12-10T01:48:23;31;21;14
42510;PMS7003;28141;51.120;17.114;2022-12-10T01:51:27;30;21;15
42510;PMS7003;28141;51.120;17.114;2022-12-10T01:54:34;34;22;15
42510;PMS7003;28141;51.120;17.114;2022-12-10T01:57:40;29;20;13
42510;PMS7003;28141;51.120;17.114;2022-12-10T02:00:45;34;23;14
42510;PMS7003;28141;51.120;17.114;2022-12-10T02:14:09;29;18;12
42510;PMS7003;28141;51.120;17.114;2022-12-10T02:17:19;27;17;11
42510;PMS7003;28141;51.120;17.114;2022-12-10T02:20:58;32;20;14
42510;PMS7003;28141;51.120;17.114;2022-12-10T02:24:07;28;19;11
42510;PMS7003;28141;51.120;17.114;2022-12-10T02:27:18;29;20;12
42510;PMS7003;28141;51.120;17.114;2022-12-10T02:30:28;36;24;15
42510;PMS7003;28141;51.120;17.114;2022-12-10T02:33:37;32;21;13
42510;PMS7003;28141;51.120;17.114;2022-12-10T02:37:10;29;20;13
42510;PMS7003;28141;51.120;17.114;2022-12-10T02:40:24;30;20;11
42510;PMS7003;28141;51.120;17.114;2022-12-10T02:43:32;30;19;12
42510;PMS7003;28141;51.120;17.114;2022-12-10T02:46:37;33;20;13
42510;PMS7003;28141;51.120;17.114;2022-12-10T02:49:43;33;22;13
42510;PMS7003;28141;51.120;17.114;2022-12-10T02:52:50;34;20;14
42510;PMS7003;28141;51.120;17.114;2022-12-10T02:56:20;30;20;12
42510;PMS7003;28141;51.120;17.114;2022-12-10T02:59:38;32;21;13
42510;PMS7003;28141;51.120;17.114;2022-12-10T03:10:03;30;20;13
42510;PMS7003;28141;51.120;17.114;2022-12-10T03:12:59;31;20;12
42510;PMS7003;28141;51.120;17.114;2022-12-10T03:16:05;31;20;11
42510;PMS7003;28141;51.120;17.114;2022-12-10T03:19:10;30;19;11
42510;PMS7003;28141;51.120;17.114;2022-12-10T03:22:17;31;21;13
42510;PMS7003;28141;51.120;17.114;2022-12-10T03:25:23;31;20;13
42510;PMS7003;28141;51.120;17.114;2022-12-10T03:28:55;30;18;12
42510;PMS7003;28141;51.120;17.114;2022-12-10T03:32:03;34;19;13
42510;PMS7003;28141;51.120;17.114;2022-12-10T03:35:08;29;19;12
42510;PMS7003;28141;51.120;17.114;2022-12-10T03:38:16;32;23;12
42510;PMS7003;28141;51.120;17.114;2022-12-10T03:41:20;26;17;12
42510;PMS7003;28141;51.120;17.114;2022-12-10T03:44:28;27;18;12
42510;PMS7003;28141;51.120;17.114;2022-12-10T03:48:00;28;20;13
42510;PMS7003;28141;51.120;17.114;2022-12-10T03:51:03;27;19;12
42510;PMS7003;28141;51.120;17.114;2022-12-10T03:54:06;27;16;11
42510;PMS7003;28141;51.120;17.114;2022-12-10T03:57:10;31;21;13
42510;PMS7003;28141;51.120;17.114;2022-12-10T04:00:13;28;19;12
42510;PMS7003;28141;51.120;17.114;2022-12-10T04:03:18;27;18;12
42510;PMS7003;28141;51.120;17.114;2022-12-10T04:06:21;29;19;10
42510;PMS7003;28141;51.120;17.114;2022-12-10T04:09:24;31;21;13
42510;PMS7003;28141;51.120;17.114;2022-12-10T04:12:28;27;16;11
42510;PMS7003;28141;51.120;17.114;2022-12-10T04:15:56;29;18;11
42510;PMS7003;28141;51.120;17.114;2022-12-10T04:19:17;29;18;12
42510;PMS7003;28141;51.120;17.114;2022-12-10T04:22:20;28;20;11
42510;PMS7003;28141;51.120;17.114;2022-12-10T04:25:36;28;17;10
42510;PMS7003;28141;51.120;17.114;2022-12-10T04:29:16;29;18;13
42510;PMS7003;28141;51.120;17.114;2022-12-10T04:32:21;26;18;11
42510;PMS7003;28141;51.120;17.114;2022-12-10T04:35:25;31;19;13
42510;PMS7003;28141;51.120;17.114;2022-12-10T04:38:29;27;18;12
42510;PMS7003;28141;51.120;17.114;2022-12-10T04:41:32;30;19;13
42510;PMS7003;28141;51.120;17.114;2022-12-10T04:44:36;27;17;11
42510;PMS7003;28141;51.120;17.114;2022-12-10T04:47:40;28;20;12
42510;PMS7003;28141;51.120;17.114;2022-12-10T04:50:43;27;17;11
42510;PMS7003;28141;51.120;17.114;2022-12-10T04:54:14;26;15;10
42510;PMS7003;28141;51.120;17.114;2022-12-10T04:57:18;28;17;12
42510;PMS7003;28141;51.120;17.114;2022-12-10T05:00:21;26;16;11
42510;PMS7003;28141;51.120;17.114;2022-12-10T05:03:24;26;16;10
42510;PMS7003;28141;51.120;17.114;2022-12-10T05:06:28;25;17;10
42510;PMS7003;28141;51.120;17.114;2022-12-10T05:09:32;26;16;11
42510;PMS7003;28141;51.120;17.114;2022-12-10T05:12:35;30;18;11
42510;PMS7003;28141;51.120;17.114;2022-12-10T05:15:39;28;15;11
42510;PMS7003;28141;51.120;17.114;2022-12-10T05:18:42;27;17;12
42510;PMS7003;28141;51.120;17.114;2022-12-10T05:22:10;27;16;12
42510;PMS7003;28141;51.120;17.114;2022-12-10T05:25:26;26;17;10
42510;PMS7003;28141;51.120;17.114;2022-12-10T05:28:29;25;16;10
42510;PMS7003;28141;51.120;17.114;2022-12-10T05:31:36;25;15;11
42510;PMS7003;28141;51.120;17.114;2022-12-10T05:34:39;27;16;11
42510;PMS7003;28141;51.120;17.114;2022-12-10T05:37:43;24;16;11
42510;PMS7003;28141;51.120;17.114;2022-12-10T05:40:46;25;15;11
42510;PMS7003;28141;51.120;17.114;2022-12-10T05:44:15;24;16;10
42510;PMS7003;28141;51.120;17.114;2022-12-10T05:47:18;26;16;11
42510;PMS7003;28141;51.120;17.114;2022-12-10T05:50:21;25;17;10
42510;PMS7003;28141;51.120;17.114;2022-12-10T05:53:25;28;19;11
42510;PMS7003;28141;51.120;17.114;2022-12-10T05:56:28;28;18;11
42510;PMS7003;28141;51.120;17.114;2022-12-10T05:59:32;27;19;12
42510;PMS7003;28141;51.120;17.114;2022-12-10T06:02:35;27;16;9
42510;PMS7003;28141;51.120;17.114;2022-12-10T06:05:39;25;15;11
42510;PMS7003;28141;51.120;17.114;2022-12-10T06:08:43;26;15;10
42510;PMS7003;28141;51.120;17.114;2022-12-10T06:12:11;29;17;11
42510;PMS7003;28141;51.120;17.114;2022-12-10T06:15:15;25;15;11
42510;PMS7003;28141;51.120;17.114;2022-12-10T06:18:18;24;15;9
42510;PMS7003;28141;51.120;17.114;2022-12-10T06:21:23;23;15;9
42510;PMS7003;28141;51.120;17.114;2022-12-10T06:24:27;27;17;11
42510;PMS7003;28141;51.120;17.114;2022-12-10T06:27:31;24;15;9
42510;PMS7003;28141;51.120;17.114;2022-12-10T06:30:35;25;15;9
42510;PMS7003;28141;51.120;17.114;2022-12-10T06:33:38;27;15;10
42510;PMS7003;28141;51.120;17.114;2022-12-10T06:37:09;21;13;10
42510;PMS7003;28141;51.120;17.114;2022-12-10T06:40:13;24;13;9
42510;PMS7003;28141;51.120;17.114;2022-12-10T06:43:16;22;14;9
42510;PMS7003;28141;51.120;17.114;2022-12-10T06:46:20;28;15;10
42510;PMS7003;28141;51.120;17.114;2022-12-10T06:49:24;24;14;9
42510;PMS7003;28141;51.120;17.114;2022-12-10T06:52:27;28;17;10
42510;PMS7003;28141;51.120;17.114;2022-12-10T06:55:30;29;17;10
42510;PMS7003;28141;51.120;17.114;2022-12-10T06:58:34;22;14;9
42510;PMS7003;28141;51.120;17.114;2022-12-10T07:01:38;23;15;9
42510;PMS7003;28141;51.120;17.114;2022-12-10T07:05:07;26;14;9
42510;PMS7003;28141;51.120;17.114;2022-12-10T07:08:10;25;15;9
42510;PMS7003;28141;51.120;17.114;2022-12-10T07:11:14;25;15;9
42510;PMS7003;28141;51.120;17.114;2022-12-10T07:14:20;23;14;9
42510;PMS7003;28141;51.120;17.114;2022-12-10T07:17:23;20;13;8
42510;PMS7003;28141;51.120;17.114;2022-12-10T07:20:27;25;16;9
42510;PMS7003;28141;51.120;17.114;2022-12-10T07:23:32;22;13;9
42510;PMS7003;28141;51.120;17.114;2022-12-10T07:26:36;23;14;9
42510;PMS7003;28141;51.120;17.114;2022-12-10T07:30:06;22;12;9
42510;PMS7003;28141;51.120;17.114;2022-12-10T07:33:10;25;15;10
42510;PMS7003;28141;51.120;17.114;2022-12-10T07:36:14;22;14;9
42510;PMS7003;28141;51.120;17.114;2022-12-10T07:39:20;23;14;9
42510;PMS7003;28141;51.120;17.114;2022-12-10T07:42:24;24;15;10
42510;PMS7003;28141;51.120;17.114;2022-12-10T07:45:27;25;15;9
42510;PMS7003;28141;51.120;17.114;2022-12-10T07:48:31;26;15;10
42510;PMS7003;28141;51.120;17.114;2022-12-10T07:51:34;30;15;9
42510;PMS7003;28141;51.120;17.114;2022-12-10T07:55:03;24;13;9
42510;PMS7003;28141;51.120;17.114;2022-12-10T07:58:07;24;13;9
42510;PMS7003;28141;51.120;17.114;2022-12-10T08:01:11;22;13;9
42510;PMS7003;28141;51.120;17.114;2022-12-10T08:04:17;26;14;9
42510;PMS7003;28141;51.120;17.114;2022-12-10T08:07:21;21;12;8
42510;PMS7003;28141;51.120;17.114;2022-12-10T08:10:24;24;14;9
42510;PMS7003;28141;51.120;17.114;2022-12-10T08:13:28;25;15;10
42510;PMS7003;28141;51.120;17.114;2022-12-10T08:16:31;22;13;8
42510;PMS7003;28141;51.120;17.114;2022-12-10T08:20:01;20;13;9
42510;PMS7003;28141;51.120;17.114;2022-12-10T08:23:04;26;15;10
42510;PMS7003;28141;51.120;17.114;2022-12-10T08:26:08;25;15;9
42510;PMS7003;28141;51.120;17.114;2022-12-10T08:29:13;26;14;9
42510;PMS7003;28141;51.120;17.114;2022-12-10T08:32:16;23;14;10
42510;PMS7003;28141;51.120;17.114;2022-12-10T08:35:20;24;14;9
42510;PMS7003;28141;51.120;17.114;2022-12-10T08:38:23;24;15;9
42510;PMS7003;28141;51.120;17.114;2022-12-10T08:41:26;20;12;9
42510;PMS7003;28141;51.120;17.114;2022-12-10T08:44:30;20;11;7
42510;PMS7003;28141;51.120;17.114;2022-12-10T08:47:57;22;13;9
42510;PMS7003;28141;51.120;17.114;2022-12-10T08:51:01;21;11;8
42510;PMS7003;28141;51.120;17.114;2022-12-10T08:54:05;22;13;8
42510;PMS7003;28141;51.120;17.114;2022-12-10T08:57:08;20;11;8
42510;PMS7003;28141;51.120;17.114;2022-12-10T09:00:12;23;15;9
42510;PMS7003;28141;51.120;17.114;2022-12-10T09:03:16;28;17;10
42510;PMS7003;28141;51.120;17.114;2022-12-10T09:06:21;22;13;9
42510;PMS7003;28141;51.120;17.114;2022-12-10T09:09:30;24;14;9
42510;PMS7003;28141;51.120;17.114;2022-12-10T09:12:59;24;15;9
42510;PMS7003;28141;51.120;17.114;2022-12-10T09:16:02;23;14;8
42510;PMS7003;28141;51.120;17.114;2022-12-10T09:19:07;23;13;9
42510;PMS7003;28141;51.120;17.114;2022-12-10T09:22:10;26;13;10
42510;PMS7003;28141;51.120;17.114;2022-12-10T09:25:14;28;16;9
42510;PMS7003;28141;51.120;17.114;2022-12-10T09:28:19;25;14;8
42510;PMS7003;28141;51.120;17.114;2022-12-10T09:31:22;23;15;9
42510;PMS7003;28141;51.120;17.114;2022-12-10T09:34:26;24;15;9
42510;PMS7003;28141;51.120;17.114;2022-12-10T09:37:56;23;15;9
42510;PMS7003;28141;51.120;17.114;2022-12-10T09:41:03;23;12;9
42510;PMS7003;28141;51.120;17.114;2022-12-10T09:47:31;24;14;9
42510;PMS7003;28141;51.120;17.114;2022-12-10T09:51:12;27;16;9
42510;PMS7003;28141;51.120;17.114;2022-12-10T09:57:40;25;17;10
42510;PMS7003;28141;51.120;17.114;2022-12-10T10:00:47;24;14;8
42510;PMS7003;28141;51.120;17.114;2022-12-10T10:03:54;20;12;8
42510;PMS7003;28141;51.120;17.114;2022-12-10T10:07:23;22;13;8
42510;PMS7003;28141;51.120;17.114;2022-12-10T10:10:32;22;14;9
42510;PMS7003;28141;51.120;17.114;2022-12-10T10:13:43;25;15;9
42510;PMS7003;28141;51.120;17.114;2022-12-10T10:20:04;22;12;8
42510;PMS7003;28141;51.120;17.114;2022-12-10T10:23:32;24;14;9
42510;PMS7003;28141;51.120;17.114;2022-12-10T10:26:37;21;13;8
42510;PMS7003;28141;51.120;17.114;2022-12-10T10:29:41;21;13;9
42510;PMS7003;28141;51.120;17.114;2022-12-10T10:32:48;23;14;9
42510;PMS7003;28141;51.120;17.114;2022-12-10T10:35:55;22;15;9
42510;PMS7003;28141;51.120;17.114;2022-12-10T10:42:42;20;13;8
42510;PMS7003;28141;51.120;17.114;2022-12-10T10:45:48;24;15;9
42510;PMS7003;28141;51.120;17.114;2022-12-10T10:52:13;20;13;9
42510;PMS7003;28141;51.120;17.114;2022-12-10T10:55:40;24;12;8
42510;PMS7003;28141;51.120;17.114;2022-12-10T10:59:07;22;15;9
42510;PMS7003;28141;51.120;17.114;2022-12-10T11:05:40;20;12;8
42510;PMS7003;28141;51.120;17.114;2022-12-10T11:08:45;24;14;9
42510;PMS7003;28141;51.120;17.114;2022-12-10T11:18:30;24;15;8
42510;PMS7003;28141;51.120;17.114;2022-12-10T11:21:37;24;15;9
42510;PMS7003;28141;51.120;17.114;2022-12-10T11:24:40;24;14;9
42510;PMS7003;28141;51.120;17.114;2022-12-10T11:31:09;23;14;9
42510;PMS7003;28141;51.120;17.114;2022-12-10T12:21:41;27;15;10
42510;PMS7003;28141;51.120;17.114;2022-12-10T12:25:16;23;15;9
42510;PMS7003;28141;51.120;17.114;2022-12-10T12:31:43;20;12;8
42510;PMS7003;28141;51.120;17.114;2022-12-10T12:34:58;25;14;9
42510;PMS7003;28141;51.120;17.114;2022-12-10T12:38:32;24;15;10
42510;PMS7003;28141;51.120;17.114;2022-12-10T12:51:52;22;14;9
42510;PMS7003;28141;51.120;17.114;2022-12-10T12:55:12;21;13;9
42510;PMS7003;28141;51.120;17.114;2022-12-10T13:01:40;25;16;10
42510;PMS7003;28141;51.120;17.114;2022-12-10T13:05:18;25;15;9
42510;PMS7003;28141;51.120;17.114;2022-12-10T13:08:28;28;16;10
42510;PMS7003;28141;51.120;17.114;2022-12-10T13:11:34;27;17;11
42510;PMS7003;28141;51.120;17.114;2022-12-10T13:21:33;27;17;11
42510;PMS7003;28141;51.120;17.114;2022-12-10T13:41:03;22;14;10
42510;PMS7003;28141;51.120;17.114;2022-12-10T14:08:03;25;14;10
42510;PMS7003;28141;51.120;17.114;2022-12-10T14:11:17;25;17;10
42510;PMS7003;28141;51.120;17.114;2022-12-10T14:21:18;26;16;10
42510;PMS7003;28141;51.120;17.114;2022-12-10T14:24:29;24;15;10
42510;PMS7003;28141;51.120;17.114;2022-12-10T14:27:35;25;17;9
42510;PMS7003;28141;51.120;17.114;2022-12-10T14:30:43;24;15;9
42510;PMS7003;28141;51.120;17.114;2022-12-10T14:34:14;27;17;11
42510;PMS7003;28141;51.120;17.114;2022-12-10T14:37:23;23;14;9
42510;PMS7003;28141;51.120;17.114;2022-12-10T14:40:29;22;13;8
42510;PMS7003;28141;51.120;17.114;2022-12-10T14:43:38;29;16;9
42510;PMS7003;28141;51.120;17.114;2022-12-10T14:46:43;23;15;10
42510;PMS7003;28141;51.120;17.114;2022-12-10T14:49:51;26;15;10
42510;PMS7003;28141;51.120;17.114;2022-12-10T14:53:25;26;15;10
42510;PMS7003;28141;51.120;17.114;2022-12-10T14:56:30;24;16;10
42510;PMS7003;28141;51.120;17.114;2022-12-10T14:59:40;26;16;10
42510;PMS7003;28141;51.120;17.114;2022-12-10T15:06:06;26;17;11
42510;PMS7003;28141;51.120;17.114;2022-12-10T15:09:36;25;15;10
42510;PMS7003;28141;51.120;17.114;2022-12-10T15:12:43;27;16;11
42510;PMS7003;28141;51.120;17.114;2022-12-10T15:15:49;25;15;10
42510;PMS7003;28141;51.120;17.114;2022-12-10T15:18:55;29;18;11
42510;PMS7003;28141;51.120;17.114;2022-12-10T15:25:23;25;15;10
42510;PMS7003;28141;51.120;17.114;2022-12-10T15:29:15;25;16;10
42510;PMS7003;28141;51.120;17.114;2022-12-10T15:32:14;22;14;10
42510;PMS7003;28141;51.120;17.114;2022-12-10T15:35:23;27;19;10
42510;PMS7003;28141;51.120;17.114;2022-12-10T15:38:26;24;16;10
42510;PMS7003;28141;51.120;17.114;2022-12-10T15:48:22;23;15;11
42510;PMS7003;28141;51.120;17.114;2022-12-10T15:51:29;27;17;11
42510;PMS7003;28141;51.120;17.114;2022-12-10T15:54:37;28;16;11
42510;PMS7003;28141;51.120;17.114;2022-12-10T15:57:43;25;15;10
42510;PMS7003;28141;51.120;17.114;2022-12-10T16:01:18;26;15;11
42510;PMS7003;28141;51.120;17.114;2022-12-10T16:04:23;26;15;9
42510;PMS7003;28141;51.120;17.114;2022-12-10T16:07:26;23;14;10
42510;PMS7003;28141;51.120;17.114;2022-12-10T16:10:29;27;17;11
42510;PMS7003;28141;51.120;17.114;2022-12-10T16:13:36;25;16;10
42510;PMS7003;28141;51.120;17.114;2022-12-10T16:16:43;26;17;11
42510;PMS7003;28141;51.120;17.114;2022-12-10T16:19:47;25;17;11
42510;PMS7003;28141;51.120;17.114;2022-12-10T16:22:51;28;16;11
42510;PMS7003;28141;51.120;17.114;2022-12-10T16:26:21;27;18;11
42510;PMS7003;28141;51.120;17.114;2022-12-10T16:29:26;27;16;10
42510;PMS7003;28141;51.120;17.114;2022-12-10T16:32:29;30;17;11
42510;PMS7003;28141;51.120;17.114;2022-12-10T16:35:32;24;14;10
42510;PMS7003;28141;51.120;17.114;2022-12-10T16:38:36;25;15;10
42510;PMS7003;28141;51.120;17.114;2022-12-10T16:41:40;24;15;9
42510;PMS7003;28141;51.120;17.114;2022-12-10T16:44:44;29;19;12
42510;PMS7003;28141;51.120;17.114;2022-12-10T16:47:48;28;19;13
42510;PMS7003;28141;51.120;17.114;2022-12-10T16:50:52;27;16;10
42510;PMS7003;28141;51.120;17.114;2022-12-10T16:54:24;25;16;10
42510;PMS7003;28141;51.120;17.114;2022-12-10T16:57:28;28;16;10
42510;PMS7003;28141;51.120;17.114;2022-12-10T17:00:32;25;16;12
42510;PMS7003;28141;51.120;17.114;2022-12-10T17:03:36;24;15;10
42510;PMS7003;28141;51.120;17.114;2022-12-10T17:06:39;29;18;11
42510;PMS7003;28141;51.120;17.114;2022-12-10T17:09:42;26;16;9
42510;PMS7003;28141;51.120;17.114;2022-12-10T17:12:45;27;19;11
42510;PMS7003;28141;51.120;17.114;2022-12-10T17:15:49;27;16;12
42510;PMS7003;28141;51.120;17.114;2022-12-10T17:18:53;28;18;11
42510;PMS7003;28141;51.120;17.114;2022-12-10T17:22:21;26;16;11
42510;PMS7003;28141;51.120;17.114;2022-12-10T17:25:25;26;17;11
42510;PMS7003;28141;51.120;17.114;2022-12-10T17:28:29;24;16;10
42510;PMS7003;28141;51.120;17.114;2022-12-10T17:31:36;27;15;10
42510;PMS7003;28141;51.120;17.114;2022-12-10T17:34:41;27;18;12
42510;PMS7003;28141;51.120;17.114;2022-12-10T17:37:45;27;14;10
42510;PMS7003;28141;51.120;17.114;2022-12-10T17:40:52;28;17;11
42510;PMS7003;28141;51.120;17.114;2022-12-10T17:44:23;25;16;11
42510;PMS7003;28141;51.120;17.114;2022-12-10T17:47:26;26;18;10
42510;PMS7003;28141;51.120;17.114;2022-12-10T17:50:34;25;16;10
42510;PMS7003;28141;51.120;17.114;2022-12-10T17:53:40;29;17;11
42510;PMS7003;28141;51.120;17.114;2022-12-10T17:56:45;26;17;10
42510;PMS7003;28141;51.120;17.114;2022-12-10T17:59:48;23;14;8
42510;PMS7003;28141;51.120;17.114;2022-12-10T18:02:52;26;15;11
42510;PMS7003;28141;51.120;17.114;2022-12-10T18:05:56;29;19;10
42510;PMS7003;28141;51.120;17.114;2022-12-10T18:09:25;25;17;11
42510;PMS7003;28141;51.120;17.114;2022-12-10T18:12:28;27;16;11
42510;PMS7003;28141;51.120;17.114;2022-12-10T18:15:32;24;16;10
42510;PMS7003;28141;51.120;17.114;2022-12-10T18:18:35;27;15;9
42510;PMS7003;28141;51.120;17.114;2022-12-10T18:21:38;27;18;12
42510;PMS7003;28141;51.120;17.114;2022-12-10T18:24:42;27;16;10
42510;PMS7003;28141;51.120;17.114;2022-12-10T18:27:45;26;17;11
42510;PMS7003;28141;51.120;17.114;2022-12-10T18:30:49;25;15;11
42510;PMS7003;28141;51.120;17.114;2022-12-10T18:34:24;27;18;11
42510;PMS7003;28141;51.120;17.114;2022-12-10T18:37:28;28;18;12
42510;PMS7003;28141;51.120;17.114;2022-12-10T18:40:31;25;17;11
42510;PMS7003;28141;51.120;17.114;2022-12-10T18:43:34;27;16;10
42510;PMS7003;28141;51.120;17.114;2022-12-10T18:46:38;27;16;10
42510;PMS7003;28141;51.120;17.114;2022-12-10T18:49:43;28;17;12
42510;PMS7003;28141;51.120;17.114;2022-12-10T18:52:46;27;18;11
42510;PMS7003;28141;51.120;17.114;2022-12-10T18:55:49;27;16;10
42510;PMS7003;28141;51.120;17.114;2022-12-10T18:58:53;24;15;10
42510;PMS7003;28141;51.120;17.114;2022-12-10T19:02:21;31;20;12
42510;PMS7003;28141;51.120;17.114;2022-12-10T19:05:24;31;20;11
42510;PMS7003;28141;51.120;17.114;2022-12-10T19:08:27;28;17;10
42510;PMS7003;28141;51.120;17.114;2022-12-10T19:11:31;28;16;10
42510;PMS7003;28141;51.120;17.114;2022-12-10T19:14:35;29;20;12
42510;PMS7003;28141;51.120;17.114;2022-12-10T19:17:38;30;17;10
42510;PMS7003;28141;51.120;17.114;2022-12-10T19:20:43;29;15;11
42510;PMS7003;28141;51.120;17.114;2022-12-10T19:23:46;28;16;11
42510;PMS7003;28141;51.120;17.114;2022-12-10T19:26:50;27;17;10
42510;PMS7003;28141;51.120;17.114;2022-12-10T19:30:22;26;18;11
42510;PMS7003;28141;51.120;17.114;2022-12-10T19:33:27;26;16;10
42510;PMS7003;28141;51.120;17.114;2022-12-10T19:36:32;27;16;10
42510;PMS7003;28141;51.120;17.114;2022-12-10T19:39:36;24;15;10
42510;PMS7003;28141;51.120;17.114;2022-12-10T19:42:39;27;19;11
42510;PMS7003;28141;51.120;17.114;2022-12-10T19:45:43;29;19;9
42510;PMS7003;28141;51.120;17.114;2022-12-10T19:48:46;29;19;12
42510;PMS7003;28141;51.120;17.114;2022-12-10T19:51:51;25;17;11
42510;PMS7003;28141;51.120;17.114;2022-12-10T19:55:19;28;16;11
42510;PMS7003;28141;51.120;17.114;2022-12-10T19:58:24;29;16;10
42510;PMS7003;28141;51.120;17.114;2022-12-10T20:01:27;28;17;11
42510;PMS7003;28141;51.120;17.114;2022-12-10T20:04:31;28;18;11
42510;PMS7003;28141;51.120;17.114;2022-12-10T20:07:35;26;16;11
42510;PMS7003;28141;51.120;17.114;2022-12-10T20:10:38;29;16;10
42510;PMS7003;28141;51.120;17.114;2022-12-10T20:13:42;26;16;11
42510;PMS7003;28141;51.120;17.114;2022-12-10T20:16:46;28;15;11
42510;PMS7003;28141;51.120;17.114;2022-12-10T20:23:29;27;17;11
42510;PMS7003;28141;51.120;17.114;2022-12-10T20:26:33;24;16;10
42510;PMS7003;28141;51.120;17.114;2022-12-10T20:29:38;26;17;11
42510;PMS7003;28141;51.120;17.114;2022-12-10T20:32:41;24;16;11
42510;PMS7003;28141;51.120;17.114;2022-12-10T20:35:46;28;17;10
42510;PMS7003;28141;51.120;17.114;2022-12-10T20:38:49;27;17;10
42510;PMS7003;28141;51.120;17.114;2022-12-10T20:41:53;26;17;10
42510;PMS7003;28141;51.120;17.114;2022-12-10T20:45:27;24;16;11
42510;PMS7003;28141;51.120;17.114;2022-12-10T20:48:30;25;17;12
42510;PMS7003;28141;51.120;17.114;2022-12-10T20:51:34;27;17;11
42510;PMS7003;28141;51.120;17.114;2022-12-10T20:54:37;29;15;10
42510;PMS7003;28141;51.120;17.114;2022-12-10T20:57:40;24;15;10
42510;PMS7003;28141;51.120;17.114;2022-12-10T21:00:44;24;16;11
42510;PMS7003;28141;51.120;17.114;2022-12-10T21:03:47;29;20;11
42510;PMS7003;28141;51.120;17.114;2022-12-10T21:06:52;30;19;11
42510;PMS7003;28141;51.120;17.114;2022-12-10T21:09:55;25;17;11
42510;PMS7003;28141;51.120;17.114;2022-12-10T21:13:27;31;18;10
42510;PMS7003;28141;51.120;17.114;2022-12-10T21:16:31;24;16;9
42510;PMS7003;28141;51.120;17.114;2022-12-10T21:19:35;25;16;11
42510;PMS7003;28141;51.120;17.114;2022-12-10T21:22:38;25;16;10
42510;PMS7003;28141;51.120;17.114;2022-12-10T21:25:41;27;18;10
42510;PMS7003;28141;51.120;17.114;2022-12-10T21:28:45;27;17;10
42510;PMS7003;28141;51.120;17.114;2022-12-10T21:31:48;27;15;11
42510;PMS7003;28141;51.120;17.114;2022-12-10T21:34:51;26;17;11
42510;PMS7003;28141;51.120;17.114;2022-12-10T21:37:54;28;17;11
42510;PMS7003;28141;51.120;17.114;2022-12-10T21:41:23;26;16;10
42510;PMS7003;28141;51.120;17.114;2022-12-10T21:44:40;26;16;10
42510;PMS7003;28141;51.120;17.114;2022-12-10T21:47:43;24;14;10
42510;PMS7003;28141;51.120;17.114;2022-12-10T21:54:00;27;15;10
42510;PMS7003;28141;51.120;17.114;2022-12-10T21:57:04;24;15;10
42510;PMS7003;28141;51.120;17.114;2022-12-10T22:00:32;28;18;11
42510;PMS7003;28141;51.120;17.114;2022-12-10T22:03:35;27;17;10
42510;PMS7003;28141;51.120;17.114;2022-12-10T22:06:39;24;14;9
42510;PMS7003;28141;51.120;17.114;2022-12-10T22:09:42;25;14;9
42510;PMS7003;28141;51.120;17.114;2022-12-10T22:12:45;24;15;10
42510;PMS7003;28141;51.120;17.114;2022-12-10T22:15:49;26;17;10
42510;PMS7003;28141;51.120;17.114;2022-12-10T22:18:52;25;17;11
42510;PMS7003;28141;51.120;17.114;2022-12-10T22:21:55;23;15;10
42510;PMS7003;28141;51.120;17.114;2022-12-10T22:24:59;27;16;11
42510;PMS7003;28141;51.120;17.114;2022-12-10T22:28:03;26;15;10
42510;PMS7003;28141;51.120;17.114;2022-12-10T22:31:35;24;15;10
42510;PMS7003;28141;51.120;17.114;2022-12-10T22:34:38;24;15;10
42510;PMS7003;28141;51.120;17.114;2022-12-10T22:37:42;26;16;10
42510;PMS7003;28141;51.120;17.114;2022-12-10T22:40:45;26;17;9
42510;PMS7003;28141;51.120;17.114;2022-12-10T22:43:48;26;18;12
42510;PMS7003;28141;51.120;17.114;2022-12-10T22:46:53;25;17;12
42510;PMS7003;28141;51.120;17.114;2022-12-10T22:49:58;24;16;11
42510;PMS7003;28141;51.120;17.114;2022-12-10T22:53:01;25;17;11
42510;PMS7003;28141;51.120;17.114;2022-12-10T22:56:06;28;17;11
42510;PMS7003;28141;51.120;17.114;2022-12-10T22:59:39;25;16;11
42510;PMS7003;28141;51.120;17.114;2022-12-10T23:02:43;25;16;10
42510;PMS7003;28141;51.120;17.114;2022-12-10T23:05:47;24;15;10